This is the latest recevied weather packets stored in our database for station/object W9PEM-13. If no packets are shown the sender has not sent any weather packets the latest 1 day(s).
| Time | Temp. | Humidity | Pressure | Rain* | Wind** | Luminosity | Snow |
|---|---|---|---|---|---|---|---|
| 1778005413 | 12.22° C | 38% | 977.5 hPa | 0 mm | 2.24 m/s, 77° | 806 W/m² | - |
| 1778005043 | 12.22° C | 39% | 977.6 hPa | 0 mm | 4.92 m/s, 269° | 630 W/m² | - |
| 1778004916 | 12.22° C | 39% | 977.6 hPa | 0 mm | 4.92 m/s, 269° | 630 W/m² | - |
| 1778004813 | 12.22° C | 39% | 977.6 hPa | 0 mm | 4.92 m/s, 269° | 630 W/m² | - |
| 1778003658 | 11.67° C | 40% | 977.5 hPa | 0 mm | 2.68 m/s, 295° | 583 W/m² | - |
| 1778003612 | 11.67° C | 40% | 977.5 hPa | 0 mm | 2.68 m/s, 295° | 583 W/m² | - |
| 1778003215 | 11.67° C | 42% | 977.6 hPa | 0 mm | 3.58 m/s, 280° | 614 W/m² | - |
| 1778003012 | 11.67° C | 42% | 977.6 hPa | 0 mm | 3.58 m/s, 280° | 614 W/m² | - |
| 1778002479 | 11.67° C | 40% | 977.6 hPa | 0 mm | 2.24 m/s, 288° | 743 W/m² | - |
| 1778002412 | 11.67° C | 40% | 977.6 hPa | 0 mm | 2.24 m/s, 288° | 743 W/m² | - |
| 1778001997 | 12.22° C | 40% | 977.6 hPa | 0 mm | 4.02 m/s, 268° | 901 W/m² | - |
| 1778001812 | 12.22° C | 40% | 977.6 hPa | 0 mm | 4.02 m/s, 268° | 901 W/m² | - |
| 1778001254 | 11.67° C | 41% | 977.5 hPa | 0 mm | 4.92 m/s, 300° | 917 W/m² | - |
| 1778001212 | 11.67° C | 41% | 977.5 hPa | 0 mm | 4.92 m/s, 300° | 917 W/m² | - |
| 1778000652 | 11.67° C | 39% | 977.3 hPa | 0 mm | 4.92 m/s, 306° | 773 W/m² | - |
| 1778000612 | 11.67° C | 39% | 977.3 hPa | 0 mm | 4.92 m/s, 306° | 773 W/m² | - |
| 1778000052 | 11.67° C | 38% | 977.4 hPa | 0 mm | 3.58 m/s, 290° | 870 W/m² | - |
| 1778000012 | 11.67° C | 38% | 977.4 hPa | 0 mm | 3.58 m/s, 290° | 870 W/m² | - |
| 1777999737 | 11.67° C | 39% | 977.4 hPa | 0 mm | 2.68 m/s, 297° | 909 W/m² | - |
| 1777999412 | 11.67° C | 39% | 977.4 hPa | 0 mm | 2.68 m/s, 297° | 909 W/m² | - |
| 1777998949 | 11.67° C | 41% | 977.6 hPa | 0 mm | 4.47 m/s, 279° | 791 W/m² | - |
| 1777998812 | 11.67° C | 41% | 977.6 hPa | 0 mm | 4.47 m/s, 279° | 791 W/m² | - |
| 1777998342 | 11.67° C | 39% | 977.6 hPa | 0 mm | 1.79 m/s, 274° | 860 W/m² | - |
| 1777998212 | 11.67° C | 39% | 977.6 hPa | 0 mm | 1.79 m/s, 274° | 860 W/m² | - |
| 1777997653 | 11.11° C | 40% | 977.4 hPa | 0 mm | 4.02 m/s, 282° | 843 W/m² | - |
* Rain latest hour (hover to see other rain measurements)
** Current wind speed in m/s (hover to see current wind gust speed)